sensor_id;sensor_type;location;lat;lon;timestamp;pressure;altitude;pressure_sealevel;temperature;humidity
55687;BME280;41911;52.362;4.978;2023-02-18T00:01:25;102174.03;;;8.59;54.80
55687;BME280;41911;52.362;4.978;2023-02-18T00:01:57;102177.94;;;9.61;54.33
55687;BME280;41911;52.362;4.978;2023-02-18T00:02:28;102180.49;;;10.00;53.81
55687;BME280;41911;52.362;4.978;2023-02-18T00:03:00;102185.10;;;9.48;54.43
55687;BME280;41911;52.362;4.978;2023-02-18T00:03:31;102184.82;;;9.21;55.01
55687;BME280;41911;52.362;4.978;2023-02-18T00:04:02;102184.90;;;9.51;54.60
55687;BME280;41911;52.362;4.978;2023-02-18T00:04:33;102185.30;;;9.51;54.53
55687;BME280;41911;52.362;4.978;2023-02-18T00:05:05;102180.67;;;9.64;54.35
55687;BME280;41911;52.362;4.978;2023-02-18T00:05:36;102183.42;;;9.71;54.19
55687;BME280;41911;52.362;4.978;2023-02-18T00:06:12;102184.34;;;9.84;54.02
55687;BME280;41911;52.362;4.978;2023-02-18T00:06:44;102180.00;;;9.92;53.81
55687;BME280;41911;52.362;4.978;2023-02-18T00:07:15;102179.38;;;9.64;54.22
55687;BME280;41911;52.362;4.978;2023-02-18T00:07:46;102180.26;;;9.73;54.15
55687;BME280;41911;52.362;4.978;2023-02-18T00:08:17;102176.66;;;9.50;54.45
55687;BME280;41911;52.362;4.978;2023-02-18T00:08:49;102177.16;;;9.61;54.61
55687;BME280;41911;52.362;4.978;2023-02-18T00:09:20;102174.36;;;9.54;54.47
55687;BME280;41911;52.362;4.978;2023-02-18T00:09:52;102174.51;;;10.36;54.11
55687;BME280;41911;52.362;4.978;2023-02-18T00:10:23;102176.39;;;9.70;54.17
55687;BME280;41911;52.362;4.978;2023-02-18T00:10:54;102177.01;;;9.92;53.89
55687;BME280;41911;52.362;4.978;2023-02-18T00:11:25;102175.73;;;9.92;53.79
55687;BME280;41911;52.362;4.978;2023-02-18T00:11:56;102176.87;;;10.09;53.55
55687;BME280;41911;52.362;4.978;2023-02-18T00:12:27;102173.39;;;10.09;53.55
55687;BME280;41911;52.362;4.978;2023-02-18T00:12:57;102172.73;;;10.09;53.49
55687;BME280;41911;52.362;4.978;2023-02-18T00:13:28;102169.09;;;9.79;53.96
55687;BME280;41911;52.362;4.978;2023-02-18T00:14:01;102168.16;;;9.62;54.22
55687;BME280;41911;52.362;4.978;2023-02-18T00:14:33;102169.78;;;10.33;53.67
55687;BME280;41911;52.362;4.978;2023-02-18T00:15:04;102172.48;;;10.16;53.41
55687;BME280;41911;52.362;4.978;2023-02-18T00:15:36;102170.24;;;9.77;54.04
55687;BME280;41911;52.362;4.978;2023-02-18T00:16:11;102168.94;;;9.50;54.49
55687;BME280;41911;52.362;4.978;2023-02-18T00:16:43;102165.11;;;9.65;54.35
55687;BME280;41911;52.362;4.978;2023-02-18T00:17:14;102166.65;;;9.80;54.06
55687;BME280;41911;52.362;4.978;2023-02-18T00:17:45;102168.07;;;9.90;53.85
55687;BME280;41911;52.362;4.978;2023-02-18T00:18:16;102169.31;;;9.60;53.85
55687;BME280;41911;52.362;4.978;2023-02-18T00:18:47;102168.76;;;9.81;53.81
55687;BME280;41911;52.362;4.978;2023-02-18T00:19:19;102168.87;;;9.69;54.21
55687;BME280;41911;52.362;4.978;2023-02-18T00:19:50;102172.17;;;9.80;54.01
55687;BME280;41911;52.362;4.978;2023-02-18T00:20:22;102171.44;;;10.01;53.76
55687;BME280;41911;52.362;4.978;2023-02-18T00:20:53;102171.09;;;10.03;53.61
55687;BME280;41911;52.362;4.978;2023-02-18T00:21:25;102167.48;;;9.91;53.73
55687;BME280;41911;52.362;4.978;2023-02-18T00:21:56;102165.91;;;9.94;53.73
55687;BME280;41911;52.362;4.978;2023-02-18T00:22:27;102166.73;;;9.89;53.82
55687;BME280;41911;52.362;4.978;2023-02-18T00:22:59;102163.70;;;9.91;53.70
55687;BME280;41911;52.362;4.978;2023-02-18T00:23:30;102159.75;;;10.19;53.39
55687;BME280;41911;52.362;4.978;2023-02-18T00:24:01;102159.22;;;10.18;53.30
55687;BME280;41911;52.362;4.978;2023-02-18T00:24:33;102158.68;;;10.31;53.22
55687;BME280;41911;52.362;4.978;2023-02-18T00:25:06;102155.14;;;10.18;53.34
55687;BME280;41911;52.362;4.978;2023-02-18T00:25:36;102154.03;;;9.94;53.20
55687;BME280;41911;52.362;4.978;2023-02-18T00:26:10;102155.12;;;9.88;53.34
55687;BME280;41911;52.362;4.978;2023-02-18T00:26:42;102159.81;;;10.04;53.55
55687;BME280;41911;52.362;4.978;2023-02-18T00:27:13;102161.59;;;9.81;53.49
55687;BME280;41911;52.362;4.978;2023-02-18T00:27:46;102163.37;;;9.77;53.45
55687;BME280;41911;52.362;4.978;2023-02-18T00:28:17;102168.41;;;10.30;53.14
55687;BME280;41911;52.362;4.978;2023-02-18T00:28:49;102167.25;;;9.94;53.27
55687;BME280;41911;52.362;4.978;2023-02-18T00:29:20;102167.64;;;10.37;53.06
55687;BME280;41911;52.362;4.978;2023-02-18T00:29:51;102163.76;;;10.56;52.84
55687;BME280;41911;52.362;4.978;2023-02-18T00:30:22;102161.89;;;10.43;52.44
55687;BME280;41911;52.362;4.978;2023-02-18T00:30:53;102160.75;;;10.49;52.42
55687;BME280;41911;52.362;4.978;2023-02-18T00:31:26;102159.20;;;10.52;52.34
55687;BME280;41911;52.362;4.978;2023-02-18T00:31:57;102161.53;;;10.52;52.42
55687;BME280;41911;52.362;4.978;2023-02-18T00:32:28;102160.62;;;10.13;52.28
55687;BME280;41911;52.362;4.978;2023-02-18T00:32:59;102160.46;;;10.56;52.08
55687;BME280;41911;52.362;4.978;2023-02-18T00:33:30;102158.53;;;10.65;51.98
55687;BME280;41911;52.362;4.978;2023-02-18T00:34:03;102156.18;;;10.35;51.85
55687;BME280;41911;52.362;4.978;2023-02-18T00:34:34;102152.50;;;10.71;51.87
55687;BME280;41911;52.362;4.978;2023-02-18T00:35:05;102150.23;;;10.74;51.89
55687;BME280;41911;52.362;4.978;2023-02-18T00:35:37;102151.43;;;10.40;51.69
55687;BME280;41911;52.362;4.978;2023-02-18T00:36:10;102151.22;;;10.42;51.69
55687;BME280;41911;52.362;4.978;2023-02-18T00:36:41;102152.15;;;10.49;51.56
55687;BME280;41911;52.362;4.978;2023-02-18T00:37:12;102153.05;;;10.36;51.72
55687;BME280;41911;52.362;4.978;2023-02-18T00:37:43;102154.51;;;10.14;51.99
55687;BME280;41911;52.362;4.978;2023-02-18T00:38:14;102151.14;;;10.12;52.65
55687;BME280;41911;52.362;4.978;2023-02-18T00:38:48;102150.74;;;10.19;52.33
55687;BME280;41911;52.362;4.978;2023-02-18T00:39:19;102148.30;;;9.42;53.07
55687;BME280;41911;52.362;4.978;2023-02-18T00:39:50;102149.24;;;9.89;53.05
55687;BME280;41911;52.362;4.978;2023-02-18T00:40:21;102147.68;;;10.46;52.70
55687;BME280;41911;52.362;4.978;2023-02-18T00:40:53;102148.33;;;10.10;52.32
55687;BME280;41911;52.362;4.978;2023-02-18T00:41:28;102147.19;;;10.51;52.23
55687;BME280;41911;52.362;4.978;2023-02-18T00:41:59;102143.59;;;10.40;51.76
55687;BME280;41911;52.362;4.978;2023-02-18T00:42:30;102146.18;;;10.75;52.09
55687;BME280;41911;52.362;4.978;2023-02-18T00:43:01;102145.87;;;10.44;52.09
55687;BME280;41911;52.362;4.978;2023-02-18T00:43:32;102148.28;;;10.29;52.18
55687;BME280;41911;52.362;4.978;2023-02-18T00:44:03;102143.86;;;9.95;52.27
55687;BME280;41911;52.362;4.978;2023-02-18T00:44:35;102145.55;;;10.35;52.17
55687;BME280;41911;52.362;4.978;2023-02-18T00:45:07;102145.40;;;9.93;52.40
55687;BME280;41911;52.362;4.978;2023-02-18T00:45:38;102144.03;;;10.32;52.72
55687;BME280;41911;52.362;4.978;2023-02-18T00:46:09;102142.08;;;9.53;53.55
55687;BME280;41911;52.362;4.978;2023-02-18T00:46:40;102142.48;;;9.58;53.69
55687;BME280;41911;52.362;4.978;2023-02-18T00:47:11;102138.04;;;9.53;54.12
55687;BME280;41911;52.362;4.978;2023-02-18T00:47:42;102135.86;;;9.72;53.92
55687;BME280;41911;52.362;4.978;2023-02-18T00:48:13;102133.19;;;10.08;53.53
55687;BME280;41911;52.362;4.978;2023-02-18T00:48:44;102134.24;;;10.09;53.35
55687;BME280;41911;52.362;4.978;2023-02-18T00:49:15;102132.07;;;10.17;53.27
55687;BME280;41911;52.362;4.978;2023-02-18T00:49:47;102133.55;;;9.95;53.54
55687;BME280;41911;52.362;4.978;2023-02-18T00:50:18;102130.16;;;9.78;53.79
55687;BME280;41911;52.362;4.978;2023-02-18T00:50:49;102133.78;;;9.90;53.68
55687;BME280;41911;52.362;4.978;2023-02-18T00:51:20;102132.39;;;9.53;54.26
55687;BME280;41911;52.362;4.978;2023-02-18T00:51:51;102130.78;;;9.36;54.54
55687;BME280;41911;52.362;4.978;2023-02-18T00:52:22;102128.86;;;9.22;54.84
55687;BME280;41911;52.362;4.978;2023-02-18T00:52:53;102128.38;;;9.17;54.89
55687;BME280;41911;52.362;4.978;2023-02-18T00:53:24;102130.50;;;9.52;54.48
55687;BME280;41911;52.362;4.978;2023-02-18T00:53:55;102130.89;;;9.69;54.16
55687;BME280;41911;52.362;4.978;2023-02-18T00:54:26;102128.56;;;10.31;54.07
55687;BME280;41911;52.362;4.978;2023-02-18T00:54:57;102129.05;;;9.68;54.12
55687;BME280;41911;52.362;4.978;2023-02-18T00:55:28;102128.89;;;9.39;54.52
55687;BME280;41911;52.362;4.978;2023-02-18T00:56:00;102130.50;;;9.23;54.90
55687;BME280;41911;52.362;4.978;2023-02-18T00:56:31;102136.71;;;9.08;55.14
55687;BME280;41911;52.362;4.978;2023-02-18T00:57:02;102137.39;;;9.07;55.40
55687;BME280;41911;52.362;4.978;2023-02-18T00:57:33;102140.66;;;9.49;55.25
55687;BME280;41911;52.362;4.978;2023-02-18T00:58:04;102137.32;;;9.00;55.36
55687;BME280;41911;52.362;4.978;2023-02-18T00:58:36;102136.71;;;9.33;54.96
55687;BME280;41911;52.362;4.978;2023-02-18T00:59:08;102141.15;;;8.77;55.84
55687;BME280;41911;52.362;4.978;2023-02-18T00:59:39;102136.84;;;9.46;55.87
55687;BME280;41911;52.362;4.978;2023-02-18T01:00:11;102135.46;;;8.91;56.82
55687;BME280;41911;52.362;4.978;2023-02-18T01:00:43;102133.27;;;9.59;55.90
55687;BME280;41911;52.362;4.978;2023-02-18T01:01:14;102133.45;;;9.10;56.05
55687;BME280;41911;52.362;4.978;2023-02-18T01:01:46;102134.77;;;8.93;56.23
55687;BME280;41911;52.362;4.978;2023-02-18T01:02:18;102136.91;;;9.38;56.13
55687;BME280;41911;52.362;4.978;2023-02-18T01:02:49;102136.77;;;9.09;56.66
55687;BME280;41911;52.362;4.978;2023-02-18T01:03:20;102134.05;;;9.23;56.33
55687;BME280;41911;52.362;4.978;2023-02-18T01:03:51;102131.89;;;9.51;55.99
55687;BME280;41911;52.362;4.978;2023-02-18T01:04:22;102126.72;;;9.40;56.14
55687;BME280;41911;52.362;4.978;2023-02-18T01:04:53;102129.71;;;9.10;56.42
55687;BME280;41911;52.362;4.978;2023-02-18T01:05:24;102136.31;;;8.56;57.28
55687;BME280;41911;52.362;4.978;2023-02-18T01:05:55;102128.68;;;9.11;56.92
55687;BME280;41911;52.362;4.978;2023-02-18T01:06:26;102134.89;;;8.46;57.42
55687;BME280;41911;52.362;4.978;2023-02-18T01:06:57;102130.93;;;9.19;57.00
55687;BME280;41911;52.362;4.978;2023-02-18T01:07:28;102131.41;;;9.26;56.71
55687;BME280;41911;52.362;4.978;2023-02-18T01:07:58;102129.58;;;9.47;56.39
55687;BME280;41911;52.362;4.978;2023-02-18T01:08:30;102134.27;;;9.43;56.43
55687;BME280;41911;52.362;4.978;2023-02-18T01:09:02;102131.91;;;9.04;56.95
55687;BME280;41911;52.362;4.978;2023-02-18T01:09:33;102134.83;;;9.40;56.54
55687;BME280;41911;52.362;4.978;2023-02-18T01:10:05;102136.64;;;9.77;55.96
55687;BME280;41911;52.362;4.978;2023-02-18T01:10:42;102133.22;;;9.15;55.94
55687;BME280;41911;52.362;4.978;2023-02-18T01:11:14;102130.12;;;9.57;55.69
55687;BME280;41911;52.362;4.978;2023-02-18T01:11:45;102126.24;;;9.92;55.58
55687;BME280;41911;52.362;4.978;2023-02-18T01:12:17;102129.01;;;9.60;55.60
55687;BME280;41911;52.362;4.978;2023-02-18T01:12:48;102129.20;;;9.49;55.71
55687;BME280;41911;52.362;4.978;2023-02-18T01:13:20;102125.66;;;9.60;55.67
55687;BME280;41911;52.362;4.978;2023-02-18T01:13:51;102125.17;;;9.79;55.64
55687;BME280;41911;52.362;4.978;2023-02-18T01:14:22;102119.19;;;8.53;57.06
55687;BME280;41911;52.362;4.978;2023-02-18T01:14:53;102126.72;;;9.45;56.47
55687;BME280;41911;52.362;4.978;2023-02-18T01:15:24;102122.19;;;9.62;56.27
55687;BME280;41911;52.362;4.978;2023-02-18T01:15:56;102119.58;;;9.60;55.74
55687;BME280;41911;52.362;4.978;2023-02-18T01:16:27;102122.47;;;10.18;55.31
55687;BME280;41911;52.362;4.978;2023-02-18T01:16:58;102124.51;;;10.28;54.97
55687;BME280;41911;52.362;4.978;2023-02-18T01:17:29;102119.98;;;10.29;54.48
55687;BME280;41911;52.362;4.978;2023-02-18T01:18:00;102121.10;;;9.99;55.29
55687;BME280;41911;52.362;4.978;2023-02-18T01:18:31;102116.99;;;9.06;55.81
55687;BME280;41911;52.362;4.978;2023-02-18T01:19:02;102113.17;;;9.55;55.99
55687;BME280;41911;52.362;4.978;2023-02-18T01:19:33;102112.96;;;9.26;56.08
55687;BME280;41911;52.362;4.978;2023-02-18T01:20:06;102114.48;;;9.65;55.52
55687;BME280;41911;52.362;4.978;2023-02-18T01:20:39;102113.03;;;9.59;55.07
55687;BME280;41911;52.362;4.978;2023-02-18T01:21:10;102111.85;;;9.52;55.66
55687;BME280;41911;52.362;4.978;2023-02-18T01:21:41;102108.22;;;9.39;55.49
55687;BME280;41911;52.362;4.978;2023-02-18T01:22:12;102106.44;;;8.98;55.96
55687;BME280;41911;52.362;4.978;2023-02-18T01:22:44;102106.07;;;9.57;56.22
55687;BME280;41911;52.362;4.978;2023-02-18T01:23:15;102107.92;;;8.77;56.71
55687;BME280;41911;52.362;4.978;2023-02-18T01:23:46;102104.39;;;9.22;56.27
55687;BME280;41911;52.362;4.978;2023-02-18T01:24:17;102103.73;;;9.65;55.72
55687;BME280;41911;52.362;4.978;2023-02-18T01:24:48;102102.60;;;9.54;55.39
55687;BME280;41911;52.362;4.978;2023-02-18T01:25:19;102101.74;;;9.70;55.18
55687;BME280;41911;52.362;4.978;2023-02-18T01:25:50;102102.11;;;9.79;54.89
55687;BME280;41911;52.362;4.978;2023-02-18T01:26:21;102101.63;;;9.82;54.85
55687;BME280;41911;52.362;4.978;2023-02-18T01:26:52;102105.93;;;9.99;54.57
55687;BME280;41911;52.362;4.978;2023-02-18T01:27:24;102099.20;;;9.67;54.94
55687;BME280;41911;52.362;4.978;2023-02-18T01:27:55;102098.38;;;9.50;55.14
55687;BME280;41911;52.362;4.978;2023-02-18T01:28:26;102095.43;;;9.55;55.21
55687;BME280;41911;52.362;4.978;2023-02-18T01:28:57;102098.03;;;9.83;54.89
55687;BME280;41911;52.362;4.978;2023-02-18T01:29:28;102096.69;;;9.92;54.61
55687;BME280;41911;52.362;4.978;2023-02-18T01:29:59;102100.62;;;9.91;54.72
55687;BME280;41911;52.362;4.978;2023-02-18T01:30:30;102098.44;;;10.15;55.04
55687;BME280;41911;52.362;4.978;2023-02-18T01:31:06;102095.39;;;9.68;55.00
55687;BME280;41911;52.362;4.978;2023-02-18T01:31:38;102096.14;;;9.67;55.04
55687;BME280;41911;52.362;4.978;2023-02-18T01:32:09;102098.97;;;9.82;54.92
55687;BME280;41911;52.362;4.978;2023-02-18T01:32:40;102097.29;;;9.95;54.67
55687;BME280;41911;52.362;4.978;2023-02-18T01:33:12;102095.21;;;9.93;54.78
55687;BME280;41911;52.362;4.978;2023-02-18T01:33:43;102100.83;;;9.93;54.77
55687;BME280;41911;52.362;4.978;2023-02-18T01:34:14;102100.94;;;9.71;54.65
55687;BME280;41911;52.362;4.978;2023-02-18T01:34:45;102102.11;;;10.62;54.49
55687;BME280;41911;52.362;4.978;2023-02-18T01:35:18;102100.39;;;10.08;54.45
55687;BME280;41911;52.362;4.978;2023-02-18T01:35:51;102102.47;;;10.15;54.30
55687;BME280;41911;52.362;4.978;2023-02-18T01:36:22;102104.70;;;10.23;54.22
55687;BME280;41911;52.362;4.978;2023-02-18T01:36:55;102100.15;;;9.71;54.48
55687;BME280;41911;52.362;4.978;2023-02-18T01:37:25;102099.33;;;10.09;54.43
55687;BME280;41911;52.362;4.978;2023-02-18T01:37:57;102097.68;;;9.89;54.65
55687;BME280;41911;52.362;4.978;2023-02-18T01:38:28;102095.46;;;9.99;54.51
55687;BME280;41911;52.362;4.978;2023-02-18T01:39:01;102097.71;;;9.79;54.44
55687;BME280;41911;52.362;4.978;2023-02-18T01:39:32;102097.94;;;10.21;54.30
55687;BME280;41911;52.362;4.978;2023-02-18T01:40:04;102097.15;;;10.42;54.08
55687;BME280;41911;52.362;4.978;2023-02-18T01:40:42;102100.73;;;10.62;53.55
55687;BME280;41911;52.362;4.978;2023-02-18T01:41:14;102099.59;;;10.03;53.90
55687;BME280;41911;52.362;4.978;2023-02-18T01:41:45;102099.11;;;10.23;53.81
55687;BME280;41911;52.362;4.978;2023-02-18T01:42:18;102099.79;;;10.51;53.73
55687;BME280;41911;52.362;4.978;2023-02-18T01:42:50;102097.08;;;10.33;53.66
55687;BME280;41911;52.362;4.978;2023-02-18T01:43:22;102095.33;;;10.28;53.71
55687;BME280;41911;52.362;4.978;2023-02-18T01:44:26;102095.66;;;10.29;53.60
55687;BME280;41911;52.362;4.978;2023-02-18T01:45:44;102093.05;;;10.34;54.17
55687;BME280;41911;52.362;4.978;2023-02-18T01:46:20;102086.18;;;9.05;55.64
55687;BME280;41911;52.362;4.978;2023-02-18T01:46:51;102085.73;;;9.45;55.20
55687;BME280;41911;52.362;4.978;2023-02-18T01:47:22;102088.48;;;9.80;55.09
55687;BME280;41911;52.362;4.978;2023-02-18T01:47:53;102084.76;;;9.91;54.99
55687;BME280;41911;52.362;4.978;2023-02-18T01:48:28;102086.63;;;9.85;54.84
55687;BME280;41911;52.362;4.978;2023-02-18T01:49:00;102087.48;;;9.74;55.20
55687;BME280;41911;52.362;4.978;2023-02-18T01:49:34;102086.27;;;9.61;55.34
55687;BME280;41911;52.362;4.978;2023-02-18T01:50:06;102083.64;;;9.25;56.12
55687;BME280;41911;52.362;4.978;2023-02-18T01:50:41;102083.71;;;9.83;56.14
55687;BME280;41911;52.362;4.978;2023-02-18T01:51:16;102081.68;;;8.94;57.09
55687;BME280;41911;52.362;4.978;2023-02-18T01:51:51;102082.09;;;8.46;58.74
55687;BME280;41911;52.362;4.978;2023-02-18T01:52:26;102079.95;;;8.41;58.69
55687;BME280;41911;52.362;4.978;2023-02-18T01:52:57;102080.64;;;8.80;58.48
55687;BME280;41911;52.362;4.978;2023-02-18T01:53:32;102076.88;;;8.64;58.73
55687;BME280;41911;52.362;4.978;2023-02-18T01:54:09;102075.17;;;8.86;58.53
55687;BME280;41911;52.362;4.978;2023-02-18T01:54:44;102065.38;;;8.91;58.55
55687;BME280;41911;52.362;4.978;2023-02-18T01:55:18;102066.15;;;8.58;59.10
55687;BME280;41911;52.362;4.978;2023-02-18T01:55:49;102062.82;;;8.49;59.78
55687;BME280;41911;52.362;4.978;2023-02-18T01:56:31;102056.46;;;8.49;59.58
55687;BME280;41911;52.362;4.978;2023-02-18T01:57:08;102058.26;;;8.45;60.75
55687;BME280;41911;52.362;4.978;2023-02-18T01:57:40;102062.97;;;8.30;60.32
55687;BME280;41911;52.362;4.978;2023-02-18T01:58:12;102061.81;;;8.24;60.53
55687;BME280;41911;52.362;4.978;2023-02-18T01:58:43;102061.16;;;8.32;60.56
55687;BME280;41911;52.362;4.978;2023-02-18T01:59:17;102058.30;;;8.39;60.40
55687;BME280;41911;52.362;4.978;2023-02-18T01:59:53;102060.09;;;8.56;60.23
55687;BME280;41911;52.362;4.978;2023-02-18T02:00:25;102056.05;;;8.42;59.80
55687;BME280;41911;52.362;4.978;2023-02-18T02:00:56;102061.30;;;9.05;59.32
55687;BME280;41911;52.362;4.978;2023-02-18T02:01:28;102056.91;;;9.24;59.04
55687;BME280;41911;52.362;4.978;2023-02-18T02:02:00;102055.82;;;8.83;59.03
55687;BME280;41911;52.362;4.978;2023-02-18T02:02:38;102056.34;;;9.39;58.56
55687;BME280;41911;52.362;4.978;2023-02-18T02:03:12;102052.14;;;9.46;58.31
55687;BME280;41911;52.362;4.978;2023-02-18T02:03:43;102054.41;;;9.06;58.42
55687;BME280;41911;52.362;4.978;2023-02-18T02:04:14;102052.31;;;8.86;58.99
55687;BME280;41911;52.362;4.978;2023-02-18T02:04:46;102053.27;;;8.87;59.06
55687;BME280;41911;52.362;4.978;2023-02-18T02:05:18;102048.58;;;8.59;59.49
55687;BME280;41911;52.362;4.978;2023-02-18T02:05:49;102052.27;;;8.91;59.06
55687;BME280;41911;52.362;4.978;2023-02-18T02:06:22;102048.70;;;8.48;59.81
55687;BME280;41911;52.362;4.978;2023-02-18T02:06:53;102046.95;;;8.49;59.79
55687;BME280;41911;52.362;4.978;2023-02-18T02:07:25;102042.78;;;8.56;60.12
55687;BME280;41911;52.362;4.978;2023-02-18T02:07:59;102040.92;;;8.65;59.66
55687;BME280;41911;52.362;4.978;2023-02-18T02:08:31;102039.16;;;8.54;60.11
55687;BME280;41911;52.362;4.978;2023-02-18T02:09:04;102042.40;;;8.59;60.10
55687;BME280;41911;52.362;4.978;2023-02-18T02:09:37;102039.61;;;8.39;60.45
55687;BME280;41911;52.362;4.978;2023-02-18T02:10:11;102034.72;;;7.99;60.82
55687;BME280;41911;52.362;4.978;2023-02-18T02:11:03;102036.59;;;8.37;60.95
55687;BME280;41911;52.362;4.978;2023-02-18T02:11:54;102031.91;;;8.43;60.40
55687;BME280;41911;52.362;4.978;2023-02-18T02:12:46;102029.47;;;8.55;60.54
55687;BME280;41911;52.362;4.978;2023-02-18T02:13:28;102027.73;;;8.59;60.50
55687;BME280;41911;52.362;4.978;2023-02-18T02:14:17;102025.62;;;8.18;61.33
55687;BME280;41911;52.362;4.978;2023-02-18T02:15:05;102023.40;;;8.36;60.52
55687;BME280;41911;52.362;4.978;2023-02-18T02:15:45;102022.59;;;8.23;61.33
55687;BME280;41911;52.362;4.978;2023-02-18T02:16:25;102018.20;;;8.91;60.70
55687;BME280;41911;52.362;4.978;2023-02-18T02:17:03;102016.13;;;8.56;60.36
55687;BME280;41911;52.362;4.978;2023-02-18T02:17:42;102015.23;;;8.85;60.13
55687;BME280;41911;52.362;4.978;2023-02-18T02:18:32;102010.80;;;8.77;59.61
55687;BME280;41911;52.362;4.978;2023-02-18T02:19:24;102012.98;;;9.17;58.94
55687;BME280;41911;52.362;4.978;2023-02-18T02:20:25;102009.07;;;9.18;58.89
55687;BME280;41911;52.362;4.978;2023-02-18T02:21:28;102006.50;;;9.21;58.50
55687;BME280;41911;52.362;4.978;2023-02-18T02:22:32;102003.14;;;9.58;58.09
55687;BME280;41911;52.362;4.978;2023-02-18T02:27:04;101982.64;;;9.59;58.15
55687;BME280;41911;52.362;4.978;2023-02-18T02:27:56;101978.15;;;9.29;58.10
55687;BME280;41911;52.362;4.978;2023-02-18T02:29:16;101979.92;;;9.36;57.66
55687;BME280;41911;52.362;4.978;2023-02-18T02:32:50;101975.29;;;9.20;57.66
55687;BME280;41911;52.362;4.978;2023-02-18T02:34:43;101969.72;;;9.43;57.49
55687;BME280;41911;52.362;4.978;2023-02-18T02:35:19;101966.78;;;9.01;57.80
55687;BME280;41911;52.362;4.978;2023-02-18T02:35:59;101962.97;;;9.30;57.80
55687;BME280;41911;52.362;4.978;2023-02-18T02:36:38;101964.22;;;9.17;57.36
55687;BME280;41911;52.362;4.978;2023-02-18T02:37:15;101960.59;;;9.11;57.32
55687;BME280;41911;52.362;4.978;2023-02-18T02:37:52;101958.11;;;8.93;57.66
55687;BME280;41911;52.362;4.978;2023-02-18T02:38:30;101953.70;;;9.36;57.48
55687;BME280;41911;52.362;4.978;2023-02-18T02:39:06;101953.82;;;9.30;57.15
55687;BME280;41911;52.362;4.978;2023-02-18T02:39:51;101953.58;;;9.28;57.01
55687;BME280;41911;52.362;4.978;2023-02-18T02:40:32;101953.53;;;9.47;57.22
55687;BME280;41911;52.362;4.978;2023-02-18T02:41:17;101950.64;;;9.34;56.85
55687;BME280;41911;52.362;4.978;2023-02-18T02:42:00;101946.82;;;9.42;56.96
55687;BME280;41911;52.362;4.978;2023-02-18T02:42:45;101948.64;;;9.72;56.77
55687;BME280;41911;52.362;4.978;2023-02-18T02:43:30;101947.23;;;9.57;56.66
55687;BME280;41911;52.362;4.978;2023-02-18T02:44:12;101949.14;;;9.27;56.98
55687;BME280;41911;52.362;4.978;2023-02-18T02:44:54;101952.37;;;9.46;56.90
55687;BME280;41911;52.362;4.978;2023-02-18T02:45:35;101950.60;;;9.25;57.12
55687;BME280;41911;52.362;4.978;2023-02-18T02:46:15;101946.90;;;8.91;57.65
55687;BME280;41911;52.362;4.978;2023-02-18T02:46:51;101949.23;;;9.31;57.01
55687;BME280;41911;52.362;4.978;2023-02-18T02:47:43;101950.20;;;9.30;56.97
55687;BME280;41911;52.362;4.978;2023-02-18T02:48:28;101947.96;;;9.32;57.06
55687;BME280;41911;52.362;4.978;2023-02-18T02:49:08;101947.83;;;9.48;57.38
55687;BME280;41911;52.362;4.978;2023-02-18T02:49:49;101951.30;;;8.83;58.14
55687;BME280;41911;52.362;4.978;2023-02-18T02:50:31;101949.54;;;9.43;58.13
55687;BME280;41911;52.362;4.978;2023-02-18T02:51:10;101946.07;;;8.99;57.96
55687;BME280;41911;52.362;4.978;2023-02-18T02:51:46;101945.49;;;9.03;58.58
55687;BME280;41911;52.362;4.978;2023-02-18T02:52:22;101943.70;;;8.18;59.11
55687;BME280;41911;52.362;4.978;2023-02-18T02:52:58;101940.41;;;8.92;59.20
55687;BME280;41911;52.362;4.978;2023-02-18T02:53:34;101939.34;;;9.06;58.85
55687;BME280;41911;52.362;4.978;2023-02-18T02:54:15;101942.82;;;9.15;58.88
55687;BME280;41911;52.362;4.978;2023-02-18T02:54:46;101942.78;;;9.25;58.25
55687;BME280;41911;52.362;4.978;2023-02-18T02:55:17;101944.73;;;9.05;58.40
55687;BME280;41911;52.362;4.978;2023-02-18T02:55:48;101943.79;;;9.01;58.03
55687;BME280;41911;52.362;4.978;2023-02-18T02:56:21;101945.83;;;9.65;58.26
55687;BME280;41911;52.362;4.978;2023-02-18T02:57:05;101944.82;;;9.21;58.74
55687;BME280;41911;52.362;4.978;2023-02-18T02:57:47;101941.20;;;8.56;59.49
55687;BME280;41911;52.362;4.978;2023-02-18T02:58:19;101939.08;;;9.02;59.12
55687;BME280;41911;52.362;4.978;2023-02-18T02:58:57;101940.08;;;9.41;58.68
55687;BME280;41911;52.362;4.978;2023-02-18T02:59:31;101936.21;;;9.21;58.25
55687;BME280;41911;52.362;4.978;2023-02-18T03:00:05;101935.62;;;9.31;58.34
55687;BME280;41911;52.362;4.978;2023-02-18T03:00:46;101930.24;;;9.28;58.31
55687;BME280;41911;52.362;4.978;2023-02-18T03:01:30;101938.45;;;9.00;58.69
55687;BME280;41911;52.362;4.978;2023-02-18T03:02:23;101938.66;;;8.71;59.20
55687;BME280;41911;52.362;4.978;2023-02-18T03:03:09;101931.78;;;9.01;59.14
55687;BME280;41911;52.362;4.978;2023-02-18T03:04:04;101933.61;;;9.20;59.33
55687;BME280;41911;52.362;4.978;2023-02-18T03:04:53;101929.64;;;9.12;59.66
55687;BME280;41911;52.362;4.978;2023-02-18T03:05:39;101932.78;;;8.70;59.41
55687;BME280;41911;52.362;4.978;2023-02-18T03:06:42;101930.43;;;8.96;59.44
55687;BME280;41911;52.362;4.978;2023-02-18T03:07:38;101928.34;;;8.83;59.41
55687;BME280;41911;52.362;4.978;2023-02-18T03:08:29;101926.22;;;8.96;59.96
55687;BME280;41911;52.362;4.978;2023-02-18T03:09:09;101929.21;;;9.14;59.55
55687;BME280;41911;52.362;4.978;2023-02-18T03:09:59;101923.63;;;9.39;58.81
55687;BME280;41911;52.362;4.978;2023-02-18T03:10:47;101918.95;;;9.34;59.07
55687;BME280;41911;52.362;4.978;2023-02-18T03:11:19;101920.46;;;8.87;59.10
55687;BME280;41911;52.362;4.978;2023-02-18T03:11:56;101922.65;;;9.73;58.87
55687;BME280;41911;52.362;4.978;2023-02-18T03:12:34;101920.46;;;9.92;58.71
55687;BME280;41911;52.362;4.978;2023-02-18T03:13:11;101918.54;;;9.54;58.27